Time;durP1;ratioP1;P1;durP2;ratioP2;P2;SDS_P1;SDS_P2;PMS_P1;PMS_P2;Temp;Humidity;BMP_temperature;BMP_pressure;BME280_temperature;BME280_humidity;BME280_pressure;Samples;Min_cycle;Max_cycle;Signal;HPM_P1;HPM_P2
2022/05/27 00:02:50;;;;;;;5.97;3.50;;;;;;;;;;10356961;28;20379;-72
2022/05/27 00:07:50;;;;;;;4.32;3.58;;;;;;;;;;10356070;28;20738;-70
2022/05/27 00:12:50;;;;;;;5.55;3.17;;;;;;;;;;10339843;28;20030;-72
2022/05/27 00:17:51;;;;;;;7.82;3.60;;;;;;;;;;10358485;28;20681;-71
2022/05/27 00:22:51;;;;;;;3.80;2.85;;;;;;;;;;10358233;28;20121;-70
2022/05/27 00:27:51;;;;;;;5.45;3.45;;;;;;;;;;10358348;28;20020;-70
2022/05/27 00:32:52;;;;;;;6.67;4.03;;;;;;;;;;10358742;28;20453;-69
2022/05/27 00:37:52;;;;;;;7.73;4.43;;;;;;;;;;10357942;28;20105;-73
2022/05/27 00:42:52;;;;;;;10.18;4.47;;;;;;;;;;10358407;28;20406;-72
2022/05/27 00:47:54;;;;;;;11.60;5.25;;;;;;;;;;10363350;28;20022;-74
2022/05/27 00:52:55;;;;;;;7.85;5.18;;;;;;;;;;10365103;28;20018;-69
2022/05/27 00:58:11;;;;;;;9.90;5.60;;;;;;;;;;10365048;28;20025;-70
2022/05/27 01:03:12;;;;;;;8.80;4.93;;;;;;;;;;10365182;28;20087;-70
2022/05/27 01:08:14;;;;;;;8.50;5.13;;;;;;;;;;10364786;28;20528;-69
2022/05/27 01:13:21;;;;;;;8.15;4.88;;;;;;;;;;10364485;28;20113;-71
2022/05/27 01:18:21;;;;;;;8.10;5.18;;;;;;;;;;10365649;28;20033;-72
2022/05/27 01:23:21;;;;;;;9.57;6.20;;;;;;;;;;10363617;28;20076;-69
2022/05/27 01:28:22;;;;;;;9.75;5.65;;;;;;;;;;10363578;28;20549;-71
2022/05/27 01:33:36;;;;;;;10.52;6.25;;;;;;;;;;10363651;28;20042;-71
2022/05/27 01:38:55;;;;;;;11.75;6.03;;;;;;;;;;10364817;28;20075;-71
2022/05/27 01:43:59;;;;;;;10.38;5.68;;;;;;;;;;10363752;28;20101;-70
2022/05/27 01:49:16;;;;;;;8.77;5.95;;;;;;;;;;10363040;28;20111;-71
2022/05/27 01:54:22;;;;;;;11.80;6.07;;;;;;;;;;10362742;28;20022;-71
2022/05/27 01:59:38;;;;;;;8.60;4.97;;;;;;;;;;10362409;28;20602;-77
2022/05/27 02:04:45;;;;;;;9.70;5.68;;;;;;;;;;10363637;28;20109;-69
2022/05/27 02:09:47;;;;;;;9.73;6.03;;;;;;;;;;10362066;28;20133;-73
2022/05/27 02:14:50;;;;;;;11.48;5.40;;;;;;;;;;10363346;28;20033;-70
2022/05/27 02:19:53;;;;;;;7.35;4.95;;;;;;;;;;10361952;28;20066;-71
2022/05/27 02:24:58;;;;;;;8.60;5.75;;;;;;;;;;10361825;28;20413;-72
2022/05/27 02:30:01;;;;;;;7.80;5.07;;;;;;;;;;10362784;28;20042;-74
2022/05/27 02:35:09;;;;;;;6.65;4.85;;;;;;;;;;10362480;28;20034;-74
2022/05/27 02:40:12;;;;;;;8.05;5.40;;;;;;;;;;10361537;28;20061;-70
2022/05/27 02:45:18;;;;;;;10.13;5.65;;;;;;;;;;10362162;28;20017;-72
2022/05/27 02:50:31;;;;;;;7.95;5.03;;;;;;;;;;10360361;28;20037;-74
2022/05/27 02:55:49;;;;;;;13.57;6.95;;;;;;;;;;10363245;28;20048;-70
2022/05/27 03:00:50;;;;;;;9.52;6.25;;;;;;;;;;10361521;28;20029;-72
2022/05/27 03:06:09;;;;;;;14.75;6.05;;;;;;;;;;10361631;28;20105;-72
2022/05/27 03:11:09;;;;;;;12.85;5.75;;;;;;;;;;10360895;28;20116;-70
2022/05/27 03:16:21;;;;;;;10.73;6.13;;;;;;;;;;10362888;28;20038;-73
2022/05/27 03:21:24;;;;;;;11.57;5.57;;;;;;;;;;10362434;28;20054;-70
2022/05/27 03:26:32;;;;;;;8.30;5.47;;;;;;;;;;10362260;28;20029;-71
2022/05/27 03:31:38;;;;;;;11.82;7.10;;;;;;;;;;10361016;28;20120;-73
2022/05/27 03:36:39;;;;;;;12.02;6.85;;;;;;;;;;10361616;28;20034;-72
2022/05/27 03:41:45;;;;;;;15.37;6.20;;;;;;;;;;10360741;28;20022;-70
2022/05/27 03:46:48;;;;;;;15.05;7.05;;;;;;;;;;10360907;28;20104;-71
2022/05/27 03:52:05;;;;;;;9.60;6.22;;;;;;;;;;10360462;28;20109;-71
2022/05/27 03:57:05;;;;;;;12.20;7.20;;;;;;;;;;10360307;28;20034;-70
2022/05/27 04:02:06;;;;;;;9.63;6.45;;;;;;;;;;10360000;28;20092;-70
2022/05/27 04:07:06;;;;;;;15.98;6.53;;;;;;;;;;10360140;28;20367;-69
2022/05/27 04:12:07;;;;;;;15.10;6.60;;;;;;;;;;10359980;28;20018;-72
2022/05/27 04:22:27;;;;;;;11.57;6.03;;;;;;;;;;10366657;28;20026;-74
2022/05/27 04:27:27;;;;;;;14.75;5.57;;;;;;;;;;10367810;28;20022;-76
2022/05/27 04:32:28;;;;;;;11.68;6.65;;;;;;;;;;10367407;28;20102;-73
2022/05/27 04:37:28;;;;;;;15.25;5.53;;;;;;;;;;10366402;28;20050;-72
2022/05/27 04:42:28;;;;;;;11.10;6.47;;;;;;;;;;10350673;28;20030;-72
2022/05/27 04:47:29;;;;;;;10.43;6.10;;;;;;;;;;10367956;28;20512;-72
2022/05/27 04:52:33;;;;;;;10.05;5.85;;;;;;;;;;10366597;28;20280;-74
2022/05/27 04:57:35;;;;;;;8.20;6.25;;;;;;;;;;10365680;28;20030;-72
2022/05/27 05:02:35;;;;;;;15.18;6.28;;;;;;;;;;10365997;28;20502;-77
2022/05/27 05:07:36;;;;;;;10.33;5.10;;;;;;;;;;10364910;28;20175;-73
2022/05/27 05:12:36;;;;;;;10.32;4.97;;;;;;;;;;10364052;28;20077;-71
2022/05/27 05:17:37;;;;;;;9.70;5.63;;;;;;;;;;10364760;28;20080;-73
2022/05/27 05:22:37;;;;;;;14.87;5.07;;;;;;;;;;10364863;28;20097;-74
2022/05/27 05:27:40;;;;;;;14.10;4.68;;;;;;;;;;10363838;28;20567;-72
2022/05/27 05:32:41;;;;;;;20.20;5.15;;;;;;;;;;10362727;28;20458;-76
2022/05/27 05:37:41;;;;;;;12.48;5.07;;;;;;;;;;10363207;28;20026;-72
2022/05/27 05:42:42;;;;;;;10.30;4.53;;;;;;;;;;10347800;28;20022;-73
2022/05/27 05:47:43;;;;;;;11.35;4.38;;;;;;;;;;10364173;28;20080;-73
2022/05/27 05:52:43;;;;;;;13.45;5.05;;;;;;;;;;10363774;28;20029;-75
2022/05/27 05:57:44;;;;;;;12.40;4.70;;;;;;;;;;10364084;28;20065;-72
2022/05/27 06:02:45;;;;;;;8.18;4.18;;;;;;;;;;10364768;28;20026;-72
2022/05/27 06:07:46;;;;;;;6.10;3.25;;;;;;;;;;10369184;28;20038;-75
2022/05/27 06:12:46;;;;;;;6.47;3.08;;;;;;;;;;10363002;28;20037;-73
2022/05/27 06:17:46;;;;;;;6.27;2.63;;;;;;;;;;10364284;28;20022;-75
2022/05/27 06:22:47;;;;;;;8.45;2.75;;;;;;;;;;10363417;28;20449;-76
2022/05/27 06:27:47;;;;;;;11.05;2.63;;;;;;;;;;10363892;28;20019;-68
2022/05/27 06:38:06;;;;;;;8.30;2.90;;;;;;;;;;10363783;28;20033;-75
2022/05/27 06:43:06;;;;;;;5.37;2.57;;;;;;;;;;10361554;28;20014;-72
2022/05/27 06:48:07;;;;;;;7.20;3.50;;;;;;;;;;10362108;28;20558;-73
2022/05/27 06:53:07;;;;;;;6.38;2.78;;;;;;;;;;10362012;28;20486;-71
2022/05/27 06:58:07;;;;;;;10.02;2.45;;;;;;;;;;10363083;28;20018;-72
2022/05/27 07:03:08;;;;;;;4.07;2.37;;;;;;;;;;10361563;28;20239;-75
2022/05/27 07:08:08;;;;;;;8.33;2.87;;;;;;;;;;10362522;28;20050;-71
2022/05/27 07:13:09;;;;;;;10.10;2.83;;;;;;;;;;10363216;28;20105;-72
2022/05/27 07:18:09;;;;;;;11.45;2.13;;;;;;;;;;10361108;28;20029;-72
2022/05/27 07:23:10;;;;;;;5.05;2.35;;;;;;;;;;10362384;28;20477;-75
2022/05/27 07:28:12;;;;;;;6.85;2.15;;;;;;;;;;10361864;28;20120;-70
2022/05/27 07:33:13;;;;;;;3.97;1.75;;;;;;;;;;10360781;28;20025;-70
2022/05/27 07:38:13;;;;;;;5.90;1.85;;;;;;;;;;10362058;28;20034;-71
2022/05/27 07:43:14;;;;;;;10.47;2.97;;;;;;;;;;10360498;28;20109;-72
2022/05/27 07:48:14;;;;;;;10.65;2.00;;;;;;;;;;10361090;28;20018;-71
2022/05/27 07:53:16;;;;;;;4.63;1.98;;;;;;;;;;10360369;28;20034;-71
2022/05/27 07:58:16;;;;;;;3.50;1.60;;;;;;;;;;10374406;28;20018;-71
2022/05/27 08:03:18;;;;;;;3.58;1.40;;;;;;;;;;10368563;28;20417;-70
2022/05/27 08:08:19;;;;;;;6.70;1.48;;;;;;;;;;10368891;28;20042;-71
2022/05/27 08:13:20;;;;;;;5.22;1.60;;;;;;;;;;10368061;28;20022;-71
2022/05/27 08:18:21;;;;;;;4.75;1.83;;;;;;;;;;10368059;28;20025;-72
2022/05/27 08:23:21;;;;;;;6.45;1.80;;;;;;;;;;10367794;28;20024;-72
2022/05/27 08:28:24;;;;;;;4.55;1.85;;;;;;;;;;10367380;28;20105;-75
2022/05/27 08:33:25;;;;;;;7.22;2.47;;;;;;;;;;10367594;28;20046;-72
2022/05/27 08:38:30;;;;;;;4.53;2.17;;;;;;;;;;10350841;28;20528;-71
2022/05/27 08:43:49;;;;;;;7.13;2.30;;;;;;;;;;10366930;28;20067;-71
2022/05/27 08:48:51;;;;;;;3.78;2.30;;;;;;;;;;10366757;28;20049;-72
2022/05/27 08:53:54;;;;;;;9.10;2.13;;;;;;;;;;10367825;28;20101;-71
2022/05/27 09:04:21;;;;;;;10.82;2.75;;;;;;;;;;10367281;28;20026;-75
2022/05/27 09:09:23;;;;;;;4.97;2.20;;;;;;;;;;10364441;28;20050;-72
2022/05/27 09:14:25;;;;;;;7.03;2.55;;;;;;;;;;10365580;28;20105;-72
2022/05/27 09:19:34;;;;;;;7.65;3.28;;;;;;;;;;10348677;28;20022;-72
2022/05/27 09:24:34;;;;;;;8.05;1.73;;;;;;;;;;10365396;28;20581;-75
2022/05/27 09:29:41;;;;;;;2.40;1.75;;;;;;;;;;10366224;28;20048;-70
2022/05/27 09:34:42;;;;;;;12.48;2.45;;;;;;;;;;10365375;28;20025;-73
2022/05/27 09:39:42;;;;;;;7.05;2.20;;;;;;;;;;10364395;28;20022;-72
2022/05/27 09:44:42;;;;;;;10.80;2.38;;;;;;;;;;10364229;28;20043;-72
2022/05/27 09:49:45;;;;;;;6.38;2.08;;;;;;;;;;10364200;28;20129;-72
2022/05/27 09:54:46;;;;;;;4.45;1.98;;;;;;;;;;10364212;28;20544;-71
2022/05/27 09:59:48;;;;;;;6.60;2.08;;;;;;;;;;10364031;28;20085;-78
2022/05/27 10:05:02;;;;;;;6.00;1.92;;;;;;;;;;10363767;28;20084;-72
2022/05/27 10:10:15;;;;;;;5.13;2.08;;;;;;;;;;10367533;28;20045;-72
2022/05/27 10:15:23;;;;;;;10.63;2.25;;;;;;;;;;10364367;28;20045;-71
2022/05/27 10:20:29;;;;;;;7.28;2.40;;;;;;;;;;10363093;28;20028;-71
2022/05/27 10:25:34;;;;;;;5.55;1.85;;;;;;;;;;10364419;28;20649;-74
2022/05/27 10:30:34;;;;;;;;;;;;;;;;;;10364637;28;20474;-74
2022/05/27 10:35:35;;;;;;;8.95;2.72;;;;;;;;;;10363915;28;19912;-75
2022/05/27 10:40:35;;;;;;;10.43;2.20;;;;;;;;;;10363337;28;20033;-76
2022/05/27 10:45:36;;;;;;;7.30;1.90;;;;;;;;;;10362355;28;20018;-76
2022/05/27 10:50:40;;;;;;;4.70;1.45;;;;;;;;;;10363019;28;20042;-74
2022/05/27 10:55:47;;;;;;;3.80;1.67;;;;;;;;;;10362269;28;20087;-76
2022/05/27 11:06:12;;;;;;;12.45;2.22;;;;;;;;;;10362627;28;20034;-72
2022/05/27 11:11:26;;;;;;;15.55;2.35;;;;;;;;;;10361519;28;20060;-73
2022/05/27 11:16:39;;;;;;;9.20;3.85;;;;;;;;;;10361284;28;20410;-71
2022/05/27 11:21:42;;;;;;;9.60;2.17;;;;;;;;;;10361741;28;20680;-72
2022/05/27 11:26:43;;;;;;;9.18;2.40;;;;;;;;;;10362793;28;20557;-71
2022/05/27 11:32:02;;;;;;;4.30;2.22;;;;;;;;;;10359982;28;20021;-72
2022/05/27 11:37:14;;;;;;;7.05;2.33;;;;;;;;;;10360643;28;20064;-70
2022/05/27 11:42:29;;;;;;;7.18;2.63;;;;;;;;;;10362388;28;20022;-75
2022/05/27 11:47:35;;;;;;;16.70;3.72;;;;;;;;;;10362133;28;20469;-72
2022/05/27 11:52:52;;;;;;;358.37;47.40;;;;;;;;;;10360755;28;20053;-74
2022/05/27 11:58:11;;;;;;;11.65;2.60;;;;;;;;;;10360655;28;20109;-73
2022/05/27 12:03:15;;;;;;;28.17;5.10;;;;;;;;;;10360128;28;20032;-76
2022/05/27 12:08:26;;;;;;;14.65;2.63;;;;;;;;;;10360708;28;20111;-75
2022/05/27 12:13:29;;;;;;;16.77;3.72;;;;;;;;;;10359941;28;20038;-73
2022/05/27 12:18:36;;;;;;;12.55;3.63;;;;;;;;;;10359866;28;20506;-72
2022/05/27 12:23:39;;;;;;;7.68;2.38;;;;;;;;;;10359587;28;20508;-73
2022/05/27 12:28:42;;;;;;;5.05;2.63;;;;;;;;;;10361034;28;20447;-71
2022/05/27 12:33:42;;;;;;;8.68;2.92;;;;;;;;;;10359753;28;20121;-72
2022/05/27 12:38:44;;;;;;;86.55;14.35;;;;;;;;;;10359309;28;20387;-74
2022/05/27 12:43:59;;;;;;;176.38;21.55;;;;;;;;;;10365433;28;20045;-72
2022/05/27 12:49:35;;;;;;;53.08;5.75;;;;;;;;;;10367760;28;20144;-73
2022/05/27 12:54:46;;;;;;;7.03;2.83;;;;;;;;;;10271002;28;20130;-74
2022/05/27 13:05:06;;;;;;;9.52;2.42;;;;;;;;;;10348167;28;20030;-71
2022/05/27 13:10:16;;;;;;;15.03;2.47;;;;;;;;;;10322715;28;20634;-72
2022/05/27 13:15:28;;;;;;;7.95;2.15;;;;;;;;;;10332577;28;20050;-79
2022/05/27 13:20:58;;;;;;;9.45;2.60;;;;;;;;;;10362528;28;20068;-77
2022/05/27 13:26:18;;;;;;;9.73;2.63;;;;;;;;;;10350173;28;20417;-73
2022/05/27 13:31:24;;;;;;;9.40;3.00;;;;;;;;;;10363044;28;20177;-71
2022/05/27 13:36:29;;;;;;;9.95;2.35;;;;;;;;;;10362123;28;20044;-72
2022/05/27 13:41:33;;;;;;;7.50;2.67;;;;;;;;;;10362199;28;20033;-71
2022/05/27 13:46:36;;;;;;;7.18;2.85;;;;;;;;;;10353659;28;20147;-72
2022/05/27 13:51:41;;;;;;;8.13;3.30;;;;;;;;;;10321358;28;20455;-72
2022/05/27 13:56:50;;;;;;;6.35;2.47;;;;;;;;;;10321985;28;20032;-73
2022/05/27 14:01:52;;;;;;;16.63;3.65;;;;;;;;;;10322744;28;20042;-77
2022/05/27 14:06:52;;;;;;;10.50;2.58;;;;;;;;;;10322622;28;20418;-72
2022/05/27 14:11:55;;;;;;;11.13;2.60;;;;;;;;;;10322549;28;20034;-73
2022/05/27 14:16:56;;;;;;;39.90;6.65;;;;;;;;;;10323075;28;20034;-75
2022/05/27 14:27:22;;;;;;;5.65;2.25;;;;;;;;;;10322825;28;20022;-73
2022/05/27 14:32:24;;;;;;;7.72;2.90;;;;;;;;;;10319502;28;20567;-77
2022/05/27 14:37:48;;;;;;;12.98;3.10;;;;;;;;;;10322383;28;20048;-76
2022/05/27 14:42:48;;;;;;;6.85;2.65;;;;;;;;;;10311868;28;20412;-78
2022/05/27 14:47:48;;;;;;;6.45;2.75;;;;;;;;;;10352220;28;20022;-79
2022/05/27 14:52:56;;;;;;;10.05;2.17;;;;;;;;;;10362953;28;20572;-76
2022/05/27 14:58:01;;;;;;;39.13;11.70;;;;;;;;;;10360812;28;20068;-72
2022/05/27 15:03:21;;;;;;;15.05;3.90;;;;;;;;;;10365158;28;20279;-77
2022/05/27 15:08:22;;;;;;;755.90;243.00;;;;;;;;;;10348311;28;20053;-74
2022/05/27 15:13:24;;;;;;;10.70;4.53;;;;;;;;;;10359805;28;20037;-77
2022/05/27 15:18:26;;;;;;;6.40;2.80;;;;;;;;;;10360485;28;20615;-73
2022/05/27 15:23:32;;;;;;;6.18;2.80;;;;;;;;;;10360047;28;20517;-71
2022/05/27 15:33:53;;;;;;;6.22;2.67;;;;;;;;;;10400566;23;20442;-72
2022/05/27 15:38:53;;;;;;;7.05;2.63;;;;;;;;;;10343318;28;20044;-71
2022/05/27 15:43:53;;;;;;;5.30;2.93;;;;;;;;;;10343363;28;20066;-72
2022/05/27 15:48:55;;;;;;;9.40;2.88;;;;;;;;;;10344093;28;20030;-71
2022/05/27 15:53:56;;;;;;;4.47;2.53;;;;;;;;;;10341898;28;20041;-76
2022/05/27 15:58:56;;;;;;;6.63;2.60;;;;;;;;;;10343174;28;20054;-76
2022/05/27 16:03:57;;;;;;;9.13;2.42;;;;;;;;;;10345573;28;20045;-74
2022/05/27 16:08:57;;;;;;;5.30;3.55;;;;;;;;;;10359324;28;20041;-76
2022/05/27 16:13:58;;;;;;;5.65;2.45;;;;;;;;;;10359786;28;20033;-75
2022/05/27 16:18:58;;;;;;;5.35;2.30;;;;;;;;;;10365748;28;20030;-75
2022/05/27 16:23:59;;;;;;;8.17;2.10;;;;;;;;;;10366192;28;20129;-76
2022/05/27 16:29:00;;;;;;;7.57;1.95;;;;;;;;;;10368751;28;20022;-79
2022/05/27 16:34:03;;;;;;;9.30;2.35;;;;;;;;;;10367632;28;20046;-76
2022/05/27 16:39:03;;;;;;;5.45;2.15;;;;;;;;;;10366318;28;20425;-75
2022/05/27 16:44:03;;;;;;;14.57;7.07;;;;;;;;;;10366169;28;20033;-78
2022/05/27 16:49:04;;;;;;;6.77;2.43;;;;;;;;;;10365836;28;20059;-71
2022/05/27 16:54:04;;;;;;;7.45;2.30;;;;;;;;;;10367744;28;20272;-74
2022/05/27 16:59:05;;;;;;;7.80;2.73;;;;;;;;;;10347954;28;20034;-76
2022/05/27 17:04:05;;;;;;;5.23;1.87;;;;;;;;;;10325530;28;20040;-73
2022/05/27 17:09:06;;;;;;;5.32;2.28;;;;;;;;;;10324502;28;20045;-75
2022/05/27 17:14:06;;;;;;;4.83;2.53;;;;;;;;;;10324620;28;20018;-72
2022/05/27 17:19:07;;;;;;;2.37;1.57;;;;;;;;;;10326539;28;20018;-74
2022/05/27 17:24:07;;;;;;;8.73;3.45;;;;;;;;;;10406682;28;20741;-74
2022/05/27 17:29:08;;;;;;;7.88;3.42;;;;;;;;;;10390465;28;20022;-73
2022/05/27 17:34:08;;;;;;;9.02;3.28;;;;;;;;;;10365061;28;20036;-73
2022/05/27 17:39:09;;;;;;;10.00;3.30;;;;;;;;;;10363825;28;20029;-70
2022/05/27 17:44:09;;;;;;;10.07;3.40;;;;;;;;;;10363723;28;20664;-76
2022/05/27 17:54:28;;;;;;;10.18;2.22;;;;;;;;;;10364220;28;20552;-78
2022/05/27 17:59:28;;;;;;;10.07;3.53;;;;;;;;;;10362754;28;20030;-76
2022/05/27 18:04:30;;;;;;;3.17;2.35;;;;;;;;;;10384656;28;20025;-76
2022/05/27 18:09:30;;;;;;;5.68;2.53;;;;;;;;;;10405016;28;20064;-77
2022/05/27 18:14:30;;;;;;;10.10;2.40;;;;;;;;;;10403370;28;20013;-76
2022/05/27 18:19:30;;;;;;;11.13;3.42;;;;;;;;;;10403660;28;20545;-72
2022/05/27 18:24:31;;;;;;;8.73;3.28;;;;;;;;;;10361473;28;20460;-74
2022/05/27 18:29:31;;;;;;;6.90;4.32;;;;;;;;;;10349245;28;20073;-70
2022/05/27 18:34:32;;;;;;;13.90;4.47;;;;;;;;;;10344629;28;20030;-70
2022/05/27 18:39:32;;;;;;;9.85;4.55;;;;;;;;;;10326226;28;20026;-75
2022/05/27 18:44:33;;;;;;;11.73;4.13;;;;;;;;;;10341368;28;20022;-74
2022/05/27 18:49:33;;;;;;;11.65;4.30;;;;;;;;;;10345999;28;20018;-73
2022/05/27 18:54:34;;;;;;;12.83;4.60;;;;;;;;;;10341780;28;20112;-71
2022/05/27 18:59:34;;;;;;;11.52;4.82;;;;;;;;;;10341352;28;20324;-71
2022/05/27 19:04:34;;;;;;;8.32;4.72;;;;;;;;;;10347389;28;20026;-71
2022/05/27 19:09:35;;;;;;;12.70;5.90;;;;;;;;;;10346785;28;20105;-71
2022/05/27 19:14:43;;;;;;;15.65;5.18;;;;;;;;;;10341234;28;20021;-72
2022/05/27 19:25:03;;;;;;;13.77;5.20;;;;;;;;;;10342489;28;20042;-74
2022/05/27 19:30:04;;;;;;;16.10;5.53;;;;;;;;;;10354289;28;20049;-73
2022/05/27 19:35:04;;;;;;;12.63;5.50;;;;;;;;;;10338485;28;20022;-70
2022/05/27 19:40:05;;;;;;;9.60;5.15;;;;;;;;;;10346036;28;20023;-69
2022/05/27 19:45:05;;;;;;;11.93;4.80;;;;;;;;;;10342045;28;20041;-74
2022/05/27 19:50:06;;;;;;;13.02;6.45;;;;;;;;;;10336014;28;20085;-77
2022/05/27 19:55:06;;;;;;;10.52;5.10;;;;;;;;;;10354715;28;20034;-73
2022/05/27 20:00:07;;;;;;;9.52;4.70;;;;;;;;;;10353219;28;20113;-71
2022/05/27 20:05:09;;;;;;;7.35;4.88;;;;;;;;;;10351933;28;20056;-70
2022/05/27 20:10:17;;;;;;;10.55;5.30;;;;;;;;;;10368669;28;20452;-70
2022/05/27 20:15:19;;;;;;;9.80;4.55;;;;;;;;;;10407507;28;20425;-71
2022/05/27 20:20:19;;;;;;;7.10;3.83;;;;;;;;;;10407947;28;20033;-74
2022/05/27 20:25:21;;;;;;;14.90;5.13;;;;;;;;;;10408147;28;20026;-70
2022/05/27 20:30:21;;;;;;;15.32;5.22;;;;;;;;;;10407500;28;20091;-76
2022/05/27 20:35:21;;;;;;;9.70;5.68;;;;;;;;;;10408255;28;20112;-69
2022/05/27 20:40:22;;;;;;;5.88;4.70;;;;;;;;;;10391225;28;20026;-77
2022/05/27 20:45:22;;;;;;;13.35;4.25;;;;;;;;;;10406778;28;20477;-70
2022/05/27 20:50:23;;;;;;;11.50;4.87;;;;;;;;;;10383559;28;20546;-75
2022/05/27 20:55:23;;;;;;;13.20;5.13;;;;;;;;;;10366868;28;20091;-70
2022/05/27 21:00:24;;;;;;;12.10;5.70;;;;;;;;;;10366842;28;20022;-76
2022/05/27 21:05:27;;;;;;;13.57;4.23;;;;;;;;;;10365187;28;20030;-71
2022/05/27 21:10:28;;;;;;;9.50;4.50;;;;;;;;;;10367987;28;20272;-72
2022/05/27 21:15:28;;;;;;;10.80;4.38;;;;;;;;;;10367142;28;20034;-70
2022/05/27 21:20:28;;;;;;;10.52;3.92;;;;;;;;;;10366268;28;20022;-73
2022/05/27 21:25:29;;;;;;;9.55;4.70;;;;;;;;;;10365720;28;20026;-71
2022/05/27 21:30:29;;;;;;;11.85;5.80;;;;;;;;;;10366039;28;20072;-71
2022/05/27 21:35:30;;;;;;;9.85;5.53;;;;;;;;;;10365794;28;20026;-71
2022/05/27 21:40:31;;;;;;;10.48;5.47;;;;;;;;;;10366856;28;20445;-73
2022/05/27 21:45:33;;;;;;;11.23;6.45;;;;;;;;;;10365193;28;20060;-72
2022/05/27 21:50:33;;;;;;;11.73;5.40;;;;;;;;;;10364911;28;20036;-71
2022/05/27 21:55:34;;;;;;;10.60;4.38;;;;;;;;;;10364778;28;20022;-72
2022/05/27 22:00:38;;;;;;;10.10;5.65;;;;;;;;;;10364555;28;20029;-72
2022/05/27 22:05:38;;;;;;;12.77;5.47;;;;;;;;;;10364485;28;20072;-71
2022/05/27 22:15:58;;;;;;;9.27;5.50;;;;;;;;;;10364905;28;20486;-72
2022/05/27 22:20:59;;;;;;;13.75;5.70;;;;;;;;;;10363625;28;20030;-71
2022/05/27 22:26:01;;;;;;;11.32;5.07;;;;;;;;;;10363784;28;20026;-75
2022/05/27 22:31:02;;;;;;;16.85;5.93;;;;;;;;;;10363779;28;20490;-72
2022/05/27 22:36:04;;;;;;;14.45;5.82;;;;;;;;;;10363499;28;20034;-71
2022/05/27 22:41:04;;;;;;;12.88;5.50;;;;;;;;;;10364372;28;20109;-71
2022/05/27 22:46:05;;;;;;;15.05;6.90;;;;;;;;;;10364121;28;20452;-71
2022/05/27 22:51:06;;;;;;;12.35;5.97;;;;;;;;;;10362613;28;20029;-74
2022/05/27 22:56:08;;;;;;;16.25;6.32;;;;;;;;;;10377532;28;20026;-70
2022/05/27 23:01:18;;;;;;;11.95;5.70;;;;;;;;;;10401170;23;20167;-70
2022/05/27 23:06:19;;;;;;;15.65;5.72;;;;;;;;;;10444449;28;20033;-72
2022/05/27 23:11:19;;;;;;;12.15;6.60;;;;;;;;;;10443648;28;20082;-75
2022/05/27 23:21:39;;;;;;;11.82;6.07;;;;;;;;;;10445055;28;20037;-71
2022/05/27 23:26:39;;;;;;;11.18;6.43;;;;;;;;;;10426105;28;20434;-71
2022/05/27 23:31:40;;;;;;;10.73;6.13;;;;;;;;;;10443005;28;20025;-72
2022/05/27 23:36:40;;;;;;;14.83;6.17;;;;;;;;;;10444836;28;20067;-71
2022/05/27 23:41:42;;;;;;;14.13;5.50;;;;;;;;;;10426542;28;20120;-74
2022/05/27 23:46:42;;;;;;;10.57;5.80;;;;;;;;;;10442695;28;20017;-71
2022/05/27 23:51:43;;;;;;;10.43;6.05;;;;;;;;;;10444348;28;20029;-71
2022/05/27 23:56:43;;;;;;;8.65;5.95;;;;;;;;;;10442731;28;20029;-71
